sensor_id;sensor_type;location;lat;lon;timestamp;temperature;humidity
35299;DHT22;21415;48.054;16.646;2023-01-09T00:02:04;9.00;54.30
35299;DHT22;21415;48.054;16.646;2023-01-09T00:04:30;9.00;54.30
35299;DHT22;21415;48.054;16.646;2023-01-09T00:06:55;9.00;54.40
35299;DHT22;21415;48.054;16.646;2023-01-09T00:09:24;9.00;54.50
35299;DHT22;21415;48.054;16.646;2023-01-09T00:11:50;9.20;55.20
35299;DHT22;21415;48.054;16.646;2023-01-09T00:14:16;9.10;54.80
35299;DHT22;21415;48.054;16.646;2023-01-09T00:16:42;9.10;54.70
35299;DHT22;21415;48.054;16.646;2023-01-09T00:19:07;9.10;54.70
35299;DHT22;21415;48.054;16.646;2023-01-09T00:21:34;9.10;54.80
35299;DHT22;21415;48.054;16.646;2023-01-09T00:23:59;9.20;54.90
35299;DHT22;21415;48.054;16.646;2023-01-09T00:26:25;9.20;54.80
35299;DHT22;21415;48.054;16.646;2023-01-09T00:28:51;9.10;54.90
35299;DHT22;21415;48.054;16.646;2023-01-09T00:31:18;9.10;54.90
35299;DHT22;21415;48.054;16.646;2023-01-09T00:33:45;9.10;54.80
35299;DHT22;21415;48.054;16.646;2023-01-09T00:36:12;9.10;54.80
35299;DHT22;21415;48.054;16.646;2023-01-09T00:38:38;9.10;54.70
35299;DHT22;21415;48.054;16.646;2023-01-09T00:41:09;9.20;54.80
35299;DHT22;21415;48.054;16.646;2023-01-09T00:43:44;9.10;54.90
35299;DHT22;21415;48.054;16.646;2023-01-09T00:46:10;9.10;54.80
35299;DHT22;21415;48.054;16.646;2023-01-09T00:48:37;9.10;54.70
35299;DHT22;21415;48.054;16.646;2023-01-09T00:51:03;9.20;54.90
35299;DHT22;21415;48.054;16.646;2023-01-09T00:53:30;9.10;54.90
35299;DHT22;21415;48.054;16.646;2023-01-09T00:55:58;9.10;54.90
35299;DHT22;21415;48.054;16.646;2023-01-09T00:58:26;9.20;54.90
35299;DHT22;21415;48.054;16.646;2023-01-09T01:00:52;9.10;54.80
35299;DHT22;21415;48.054;16.646;2023-01-09T01:03:17;9.00;54.90
35299;DHT22;21415;48.054;16.646;2023-01-09T01:05:43;9.00;55.00
35299;DHT22;21415;48.054;16.646;2023-01-09T01:08:27;9.00;55.10
35299;DHT22;21415;48.054;16.646;2023-01-09T01:10:53;9.00;55.40
35299;DHT22;21415;48.054;16.646;2023-01-09T01:13:18;9.00;55.40
35299;DHT22;21415;48.054;16.646;2023-01-09T01:15:44;9.00;55.40
35299;DHT22;21415;48.054;16.646;2023-01-09T01:18:11;9.10;55.40
35299;DHT22;21415;48.054;16.646;2023-01-09T01:20:40;9.00;55.30
35299;DHT22;21415;48.054;16.646;2023-01-09T01:23:06;9.00;55.40
35299;DHT22;21415;48.054;16.646;2023-01-09T01:25:34;9.00;55.70
35299;DHT22;21415;48.054;16.646;2023-01-09T01:28:00;9.00;55.60
35299;DHT22;21415;48.054;16.646;2023-01-09T01:30:25;9.20;56.30
35299;DHT22;21415;48.054;16.646;2023-01-09T01:32:52;9.10;55.80
35299;DHT22;21415;48.054;16.646;2023-01-09T01:35:17;9.10;55.70
35299;DHT22;21415;48.054;16.646;2023-01-09T01:37:43;9.10;55.70
35299;DHT22;21415;48.054;16.646;2023-01-09T01:40:10;9.10;55.80
35299;DHT22;21415;48.054;16.646;2023-01-09T01:42:36;9.10;55.90
35299;DHT22;21415;48.054;16.646;2023-01-09T01:49:55;9.20;56.00
35299;DHT22;21415;48.054;16.646;2023-01-09T01:52:21;9.30;56.10
35299;DHT22;21415;48.054;16.646;2023-01-09T01:54:48;9.20;55.90
35299;DHT22;21415;48.054;16.646;2023-01-09T01:57:13;9.30;56.00
35299;DHT22;21415;48.054;16.646;2023-01-09T01:59:41;9.30;56.00
35299;DHT22;21415;48.054;16.646;2023-01-09T02:02:09;9.50;56.00
35299;DHT22;21415;48.054;16.646;2023-01-09T02:04:35;9.30;56.00
35299;DHT22;21415;48.054;16.646;2023-01-09T02:07:03;9.40;56.10
35299;DHT22;21415;48.054;16.646;2023-01-09T02:09:31;9.50;56.30
35299;DHT22;21415;48.054;16.646;2023-01-09T02:11:57;9.60;56.30
35299;DHT22;21415;48.054;16.646;2023-01-09T02:14:24;9.50;56.30
35299;DHT22;21415;48.054;16.646;2023-01-09T02:26:51;9.80;56.60
35299;DHT22;21415;48.054;16.646;2023-01-09T02:32:09;9.80;56.70
35299;DHT22;21415;48.054;16.646;2023-01-09T02:34:45;9.90;56.70
35299;DHT22;21415;48.054;16.646;2023-01-09T02:37:16;10.00;56.70
35299;DHT22;21415;48.054;16.646;2023-01-09T02:39:54;10.10;56.70
35299;DHT22;21415;48.054;16.646;2023-01-09T02:42:21;10.10;56.70
35299;DHT22;21415;48.054;16.646;2023-01-09T02:44:48;10.20;57.40
35299;DHT22;21415;48.054;16.646;2023-01-09T02:49:40;10.30;56.60
35299;DHT22;21415;48.054;16.646;2023-01-09T02:57:31;10.50;56.60
35299;DHT22;21415;48.054;16.646;2023-01-09T03:09:51;10.80;56.80
35299;DHT22;21415;48.054;16.646;2023-01-09T03:12:19;10.90;56.80
35299;DHT22;21415;48.054;16.646;2023-01-09T03:14:49;10.90;56.80
35299;DHT22;21415;48.054;16.646;2023-01-09T03:17:21;11.00;57.10
35299;DHT22;21415;48.054;16.646;2023-01-09T03:19:49;11.00;56.90
35299;DHT22;21415;48.054;16.646;2023-01-09T03:22:17;11.10;56.90
35299;DHT22;21415;48.054;16.646;2023-01-09T03:24:42;11.10;56.90
35299;DHT22;21415;48.054;16.646;2023-01-09T03:27:08;11.20;56.80
35299;DHT22;21415;48.054;16.646;2023-01-09T03:29:34;11.20;56.80
35299;DHT22;21415;48.054;16.646;2023-01-09T03:32:00;11.20;56.90
35299;DHT22;21415;48.054;16.646;2023-01-09T03:34:25;11.30;56.80
35299;DHT22;21415;48.054;16.646;2023-01-09T03:36:51;11.30;56.80
35299;DHT22;21415;48.054;16.646;2023-01-09T03:39:16;11.30;56.80
35299;DHT22;21415;48.054;16.646;2023-01-09T03:41:42;11.40;56.80
35299;DHT22;21415;48.054;16.646;2023-01-09T03:44:08;11.40;56.90
35299;DHT22;21415;48.054;16.646;2023-01-09T03:46:33;11.50;56.70
35299;DHT22;21415;48.054;16.646;2023-01-09T03:48:59;11.50;56.70
35299;DHT22;21415;48.054;16.646;2023-01-09T03:51:24;11.50;56.70
35299;DHT22;21415;48.054;16.646;2023-01-09T03:53:50;11.50;56.70
35299;DHT22;21415;48.054;16.646;2023-01-09T03:56:16;11.60;56.60
35299;DHT22;21415;48.054;16.646;2023-01-09T03:58:41;11.60;56.60
35299;DHT22;21415;48.054;16.646;2023-01-09T04:01:07;11.60;56.40
35299;DHT22;21415;48.054;16.646;2023-01-09T04:03:38;11.60;56.50
35299;DHT22;21415;48.054;16.646;2023-01-09T04:06:04;11.60;56.40
35299;DHT22;21415;48.054;16.646;2023-01-09T04:08:30;11.70;56.60
35299;DHT22;21415;48.054;16.646;2023-01-09T04:10:56;11.70;56.60
35299;DHT22;21415;48.054;16.646;2023-01-09T04:13:21;11.80;56.90
35299;DHT22;21415;48.054;16.646;2023-01-09T04:15:47;11.80;57.00
35299;DHT22;21415;48.054;16.646;2023-01-09T04:18:13;11.90;57.20
35299;DHT22;21415;48.054;16.646;2023-01-09T04:20:38;11.90;57.30
35299;DHT22;21415;48.054;16.646;2023-01-09T04:23:04;12.00;57.50
35299;DHT22;21415;48.054;16.646;2023-01-09T04:25:30;12.10;57.50
35299;DHT22;21415;48.054;16.646;2023-01-09T04:27:56;12.10;57.30
35299;DHT22;21415;48.054;16.646;2023-01-09T04:30:22;12.20;57.30
35299;DHT22;21415;48.054;16.646;2023-01-09T04:32:47;12.30;57.10
35299;DHT22;21415;48.054;16.646;2023-01-09T04:35:13;12.30;57.10
35299;DHT22;21415;48.054;16.646;2023-01-09T04:37:38;12.20;56.90
35299;DHT22;21415;48.054;16.646;2023-01-09T04:40:04;12.40;57.00
35299;DHT22;21415;48.054;16.646;2023-01-09T04:42:33;12.40;57.00
35299;DHT22;21415;48.054;16.646;2023-01-09T04:44:59;12.40;56.80
35299;DHT22;21415;48.054;16.646;2023-01-09T04:47:24;12.50;56.90
35299;DHT22;21415;48.054;16.646;2023-01-09T04:49:50;12.50;56.90
35299;DHT22;21415;48.054;16.646;2023-01-09T04:52:16;12.60;57.00
35299;DHT22;21415;48.054;16.646;2023-01-09T04:54:42;12.60;56.90
35299;DHT22;21415;48.054;16.646;2023-01-09T04:57:07;12.60;56.80
35299;DHT22;21415;48.054;16.646;2023-01-09T04:59:33;12.60;57.10
35299;DHT22;21415;48.054;16.646;2023-01-09T05:01:59;12.70;57.00
35299;DHT22;21415;48.054;16.646;2023-01-09T05:04:25;12.70;57.00
35299;DHT22;21415;48.054;16.646;2023-01-09T05:06:50;12.70;57.00
35299;DHT22;21415;48.054;16.646;2023-01-09T05:09:16;12.80;57.00
35299;DHT22;21415;48.054;16.646;2023-01-09T05:11:42;12.80;57.00
35299;DHT22;21415;48.054;16.646;2023-01-09T05:14:08;12.90;57.00
35299;DHT22;21415;48.054;16.646;2023-01-09T05:16:34;12.90;56.90
35299;DHT22;21415;48.054;16.646;2023-01-09T05:19:00;12.90;56.80
35299;DHT22;21415;48.054;16.646;2023-01-09T05:21:26;13.00;56.80
35299;DHT22;21415;48.054;16.646;2023-01-09T05:23:51;13.00;56.70
35299;DHT22;21415;48.054;16.646;2023-01-09T05:26:20;13.00;56.70
35299;DHT22;21415;48.054;16.646;2023-01-09T05:28:50;13.00;56.60
35299;DHT22;21415;48.054;16.646;2023-01-09T05:31:17;13.10;56.80
35299;DHT22;21415;48.054;16.646;2023-01-09T05:33:42;13.10;56.80
35299;DHT22;21415;48.054;16.646;2023-01-09T05:36:08;13.10;56.70
35299;DHT22;21415;48.054;16.646;2023-01-09T05:38:34;13.20;56.80
35299;DHT22;21415;48.054;16.646;2023-01-09T05:40:59;13.20;56.70
35299;DHT22;21415;48.054;16.646;2023-01-09T05:43:25;13.20;56.70
35299;DHT22;21415;48.054;16.646;2023-01-09T05:45:51;13.20;56.70
35299;DHT22;21415;48.054;16.646;2023-01-09T05:48:16;13.30;56.70
35299;DHT22;21415;48.054;16.646;2023-01-09T05:50:42;13.30;56.70
35299;DHT22;21415;48.054;16.646;2023-01-09T05:53:07;13.30;56.60
35299;DHT22;21415;48.054;16.646;2023-01-09T05:55:33;13.30;56.60
35299;DHT22;21415;48.054;16.646;2023-01-09T05:57:59;13.30;56.60
35299;DHT22;21415;48.054;16.646;2023-01-09T06:00:24;13.30;56.70
35299;DHT22;21415;48.054;16.646;2023-01-09T06:02:50;13.30;56.70
35299;DHT22;21415;48.054;16.646;2023-01-09T06:05:16;13.40;56.70
35299;DHT22;21415;48.054;16.646;2023-01-09T06:07:41;13.40;56.60
35299;DHT22;21415;48.054;16.646;2023-01-09T06:10:08;13.40;56.60
35299;DHT22;21415;48.054;16.646;2023-01-09T06:12:35;13.40;56.70
35299;DHT22;21415;48.054;16.646;2023-01-09T06:15:00;13.50;56.70
35299;DHT22;21415;48.054;16.646;2023-01-09T06:17:26;13.50;56.70
35299;DHT22;21415;48.054;16.646;2023-01-09T06:19:52;13.50;56.80
35299;DHT22;21415;48.054;16.646;2023-01-09T06:22:17;13.50;57.20
35299;DHT22;21415;48.054;16.646;2023-01-09T06:24:43;13.60;56.80
35299;DHT22;21415;48.054;16.646;2023-01-09T06:27:08;13.60;56.70
35299;DHT22;21415;48.054;16.646;2023-01-09T06:29:34;13.60;56.60
35299;DHT22;21415;48.054;16.646;2023-01-09T06:32:00;13.70;56.70
35299;DHT22;21415;48.054;16.646;2023-01-09T06:34:25;13.70;56.60
35299;DHT22;21415;48.054;16.646;2023-01-09T06:36:51;13.70;56.60
35299;DHT22;21415;48.054;16.646;2023-01-09T06:39:17;13.70;56.50
35299;DHT22;21415;48.054;16.646;2023-01-09T06:41:42;13.70;56.60
35299;DHT22;21415;48.054;16.646;2023-01-09T06:44:09;13.80;56.70
35299;DHT22;21415;48.054;16.646;2023-01-09T06:46:35;13.80;56.60
35299;DHT22;21415;48.054;16.646;2023-01-09T06:49:01;13.80;56.60
35299;DHT22;21415;48.054;16.646;2023-01-09T06:51:26;13.80;56.60
35299;DHT22;21415;48.054;16.646;2023-01-09T06:53:52;13.80;56.50
35299;DHT22;21415;48.054;16.646;2023-01-09T06:56:17;13.80;56.50
35299;DHT22;21415;48.054;16.646;2023-01-09T06:58:44;13.90;56.50
35299;DHT22;21415;48.054;16.646;2023-01-09T07:01:10;13.80;56.50
35299;DHT22;21415;48.054;16.646;2023-01-09T07:03:35;13.90;56.50
35299;DHT22;21415;48.054;16.646;2023-01-09T07:06:01;13.90;56.50
35299;DHT22;21415;48.054;16.646;2023-01-09T07:08:27;13.90;56.40
35299;DHT22;21415;48.054;16.646;2023-01-09T07:10:52;13.90;56.50
35299;DHT22;21415;48.054;16.646;2023-01-09T07:13:18;14.00;56.50
35299;DHT22;21415;48.054;16.646;2023-01-09T07:15:43;14.00;56.50
35299;DHT22;21415;48.054;16.646;2023-01-09T07:18:09;14.00;56.40
35299;DHT22;21415;48.054;16.646;2023-01-09T07:20:35;14.00;56.40
35299;DHT22;21415;48.054;16.646;2023-01-09T07:23:02;14.00;56.40
35299;DHT22;21415;48.054;16.646;2023-01-09T07:25:28;14.10;56.40
35299;DHT22;21415;48.054;16.646;2023-01-09T07:27:53;14.10;56.50
35299;DHT22;21415;48.054;16.646;2023-01-09T07:30:19;14.10;56.50
35299;DHT22;21415;48.054;16.646;2023-01-09T07:32:44;14.10;56.40
35299;DHT22;21415;48.054;16.646;2023-01-09T07:35:10;14.20;56.50
35299;DHT22;21415;48.054;16.646;2023-01-09T07:37:36;14.20;56.50
35299;DHT22;21415;48.054;16.646;2023-01-09T07:40:02;14.20;56.50
35299;DHT22;21415;48.054;16.646;2023-01-09T07:42:28;14.20;56.50
35299;DHT22;21415;48.054;16.646;2023-01-09T07:44:53;14.30;56.50
35299;DHT22;21415;48.054;16.646;2023-01-09T07:47:19;14.30;56.60
35299;DHT22;21415;48.054;16.646;2023-01-09T07:49:44;14.40;56.60
35299;DHT22;21415;48.054;16.646;2023-01-09T07:52:10;14.40;56.50
35299;DHT22;21415;48.054;16.646;2023-01-09T07:54:36;14.40;56.50
35299;DHT22;21415;48.054;16.646;2023-01-09T07:57:01;14.40;56.50
35299;DHT22;21415;48.054;16.646;2023-01-09T07:59:27;14.40;56.40
35299;DHT22;21415;48.054;16.646;2023-01-09T08:01:54;14.40;56.50
35299;DHT22;21415;48.054;16.646;2023-01-09T08:04:20;14.40;56.50
35299;DHT22;21415;48.054;16.646;2023-01-09T08:06:45;14.40;56.60
35299;DHT22;21415;48.054;16.646;2023-01-09T08:09:11;14.40;56.50
35299;DHT22;21415;48.054;16.646;2023-01-09T08:11:38;14.40;56.50
35299;DHT22;21415;48.054;16.646;2023-01-09T08:14:03;14.40;56.50
35299;DHT22;21415;48.054;16.646;2023-01-09T08:16:29;14.40;56.50
35299;DHT22;21415;48.054;16.646;2023-01-09T08:18:55;14.40;56.50
35299;DHT22;21415;48.054;16.646;2023-01-09T08:21:20;14.40;56.50
35299;DHT22;21415;48.054;16.646;2023-01-09T08:23:46;14.40;56.50
35299;DHT22;21415;48.054;16.646;2023-01-09T08:26:11;14.50;56.50
35299;DHT22;21415;48.054;16.646;2023-01-09T08:28:37;14.50;56.50
35299;DHT22;21415;48.054;16.646;2023-01-09T08:31:03;14.50;56.50
35299;DHT22;21415;48.054;16.646;2023-01-09T08:33:28;14.50;56.40
35299;DHT22;21415;48.054;16.646;2023-01-09T08:35:54;14.50;56.40
35299;DHT22;21415;48.054;16.646;2023-01-09T08:38:20;14.60;56.50
35299;DHT22;21415;48.054;16.646;2023-01-09T08:40:46;14.60;56.50
35299;DHT22;21415;48.054;16.646;2023-01-09T08:43:13;14.60;56.40
35299;DHT22;21415;48.054;16.646;2023-01-09T08:45:57;14.60;56.40
35299;DHT22;21415;48.054;16.646;2023-01-09T08:48:42;14.70;56.40
35299;DHT22;21415;48.054;16.646;2023-01-09T08:51:08;14.70;56.40
35299;DHT22;21415;48.054;16.646;2023-01-09T08:53:34;14.70;56.40
35299;DHT22;21415;48.054;16.646;2023-01-09T08:55:59;14.80;56.40
35299;DHT22;21415;48.054;16.646;2023-01-09T08:58:25;14.80;56.30
35299;DHT22;21415;48.054;16.646;2023-01-09T09:00:51;14.80;56.30
35299;DHT22;21415;48.054;16.646;2023-01-09T09:03:16;14.90;56.30
35299;DHT22;21415;48.054;16.646;2023-01-09T09:05:42;14.90;56.50
35299;DHT22;21415;48.054;16.646;2023-01-09T09:08:08;14.90;56.20
35299;DHT22;21415;48.054;16.646;2023-01-09T09:10:33;14.90;56.20
35299;DHT22;21415;48.054;16.646;2023-01-09T09:12:59;15.00;56.30
35299;DHT22;21415;48.054;16.646;2023-01-09T09:15:25;15.00;56.20
35299;DHT22;21415;48.054;16.646;2023-01-09T09:17:52;15.10;56.30
35299;DHT22;21415;48.054;16.646;2023-01-09T09:20:19;15.10;56.20
35299;DHT22;21415;48.054;16.646;2023-01-09T09:22:46;15.10;56.20
35299;DHT22;21415;48.054;16.646;2023-01-09T09:25:12;15.10;56.20
35299;DHT22;21415;48.054;16.646;2023-01-09T09:27:38;15.10;56.10
35299;DHT22;21415;48.054;16.646;2023-01-09T09:30:04;15.20;56.10
35299;DHT22;21415;48.054;16.646;2023-01-09T09:32:30;15.20;56.10
35299;DHT22;21415;48.054;16.646;2023-01-09T09:34:56;15.20;56.00
35299;DHT22;21415;48.054;16.646;2023-01-09T09:37:22;15.20;56.10
35299;DHT22;21415;48.054;16.646;2023-01-09T09:39:47;15.30;56.10
35299;DHT22;21415;48.054;16.646;2023-01-09T09:47:43;15.30;56.00
35299;DHT22;21415;48.054;16.646;2023-01-09T09:52:55;15.30;55.80
35299;DHT22;21415;48.054;16.646;2023-01-09T09:55:40;15.20;55.70
35299;DHT22;21415;48.054;16.646;2023-01-09T09:58:10;15.20;55.60
35299;DHT22;21415;48.054;16.646;2023-01-09T10:00:38;15.10;55.40
35299;DHT22;21415;48.054;16.646;2023-01-09T10:03:09;15.10;55.30
35299;DHT22;21415;48.054;16.646;2023-01-09T10:05:36;15.10;55.20
35299;DHT22;21415;48.054;16.646;2023-01-09T10:10:50;15.00;55.20
35299;DHT22;21415;48.054;16.646;2023-01-09T10:13:17;15.00;55.20
35299;DHT22;21415;48.054;16.646;2023-01-09T10:16:06;15.00;55.20
35299;DHT22;21415;48.054;16.646;2023-01-09T10:21:22;14.90;55.10
35299;DHT22;21415;48.054;16.646;2023-01-09T10:26:42;14.90;55.00
35299;DHT22;21415;48.054;16.646;2023-01-09T10:36:54;14.90;54.90
35299;DHT22;21415;48.054;16.646;2023-01-09T10:40:06;14.90;54.90
35299;DHT22;21415;48.054;16.646;2023-01-09T10:42:15;14.90;54.90
35299;DHT22;21415;48.054;16.646;2023-01-09T10:47:16;14.80;54.90
35299;DHT22;21415;48.054;16.646;2023-01-09T10:49:43;14.80;54.80
35299;DHT22;21415;48.054;16.646;2023-01-09T10:52:16;14.80;54.80
35299;DHT22;21415;48.054;16.646;2023-01-09T10:54:55;14.80;54.90
35299;DHT22;21415;48.054;16.646;2023-01-09T10:57:26;14.70;54.80
35299;DHT22;21415;48.054;16.646;2023-01-09T10:59:55;14.80;54.80
35299;DHT22;21415;48.054;16.646;2023-01-09T11:02:26;14.80;54.90
35299;DHT22;21415;48.054;16.646;2023-01-09T11:04:52;14.70;54.80
35299;DHT22;21415;48.054;16.646;2023-01-09T11:07:18;14.70;54.80
35299;DHT22;21415;48.054;16.646;2023-01-09T11:09:58;14.80;54.90
35299;DHT22;21415;48.054;16.646;2023-01-09T11:12:25;14.70;54.80
35299;DHT22;21415;48.054;16.646;2023-01-09T11:14:51;14.70;54.90
35299;DHT22;21415;48.054;16.646;2023-01-09T11:17:18;14.80;55.00
35299;DHT22;21415;48.054;16.646;2023-01-09T11:19:59;14.80;55.10
35299;DHT22;21415;48.054;16.646;2023-01-09T11:22:24;14.70;55.10
35299;DHT22;21415;48.054;16.646;2023-01-09T11:24:59;14.80;55.20
35299;DHT22;21415;48.054;16.646;2023-01-09T11:27:25;14.80;55.20
35299;DHT22;21415;48.054;16.646;2023-01-09T11:30:06;14.80;55.20
35299;DHT22;21415;48.054;16.646;2023-01-09T11:32:34;14.90;55.40
35299;DHT22;21415;48.054;16.646;2023-01-09T11:35:03;14.90;55.50
35299;DHT22;21415;48.054;16.646;2023-01-09T11:37:30;15.00;55.60
35299;DHT22;21415;48.054;16.646;2023-01-09T11:39:56;15.00;55.60
35299;DHT22;21415;48.054;16.646;2023-01-09T11:42:24;15.10;55.60
35299;DHT22;21415;48.054;16.646;2023-01-09T11:45:26;15.20;55.60
35299;DHT22;21415;48.054;16.646;2023-01-09T11:47:54;15.20;56.00
35299;DHT22;21415;48.054;16.646;2023-01-09T11:50:23;15.30;55.50
35299;DHT22;21415;48.054;16.646;2023-01-09T11:53:31;15.30;55.50
35299;DHT22;21415;48.054;16.646;2023-01-09T11:55:38;15.30;55.40
35299;DHT22;21415;48.054;16.646;2023-01-09T11:58:04;15.40;55.30
35299;DHT22;21415;48.054;16.646;2023-01-09T12:00:33;15.40;55.20
35299;DHT22;21415;48.054;16.646;2023-01-09T12:14:02;15.40;54.60
35299;DHT22;21415;48.054;16.646;2023-01-09T12:16:36;15.40;54.50
35299;DHT22;21415;48.054;16.646;2023-01-09T12:21:32;15.40;54.30
35299;DHT22;21415;48.054;16.646;2023-01-09T12:26:53;15.40;54.30
35299;DHT22;21415;48.054;16.646;2023-01-09T12:34:34;15.30;54.10
35299;DHT22;21415;48.054;16.646;2023-01-09T12:37:50;15.30;54.50
35299;DHT22;21415;48.054;16.646;2023-01-09T12:44:52;15.20;54.00
35299;DHT22;21415;48.054;16.646;2023-01-09T12:47:26;15.20;54.00
35299;DHT22;21415;48.054;16.646;2023-01-09T12:50:01;15.20;54.00
35299;DHT22;21415;48.054;16.646;2023-01-09T12:52:29;15.20;53.90
35299;DHT22;21415;48.054;16.646;2023-01-09T12:55:01;15.10;53.80
35299;DHT22;21415;48.054;16.646;2023-01-09T13:02:47;15.10;53.80
35299;DHT22;21415;48.054;16.646;2023-01-09T13:05:15;15.00;53.90
35299;DHT22;21415;48.054;16.646;2023-01-09T13:07:50;15.00;53.90
35299;DHT22;21415;48.054;16.646;2023-01-09T13:10:19;15.00;53.90
35299;DHT22;21415;48.054;16.646;2023-01-09T13:12:46;15.00;53.90
35299;DHT22;21415;48.054;16.646;2023-01-09T13:15:24;15.00;53.90
35299;DHT22;21415;48.054;16.646;2023-01-09T13:17:52;14.90;53.70
35299;DHT22;21415;48.054;16.646;2023-01-09T13:20:20;14.90;53.70
35299;DHT22;21415;48.054;16.646;2023-01-09T13:22:47;14.90;53.70
35299;DHT22;21415;48.054;16.646;2023-01-09T13:33:32;14.80;53.60
35299;DHT22;21415;48.054;16.646;2023-01-09T13:35:58;14.80;53.50
35299;DHT22;21415;48.054;16.646;2023-01-09T13:38:27;14.80;53.40
35299;DHT22;21415;48.054;16.646;2023-01-09T13:40:59;14.80;53.50
35299;DHT22;21415;48.054;16.646;2023-01-09T13:46:41;14.80;53.50
35299;DHT22;21415;48.054;16.646;2023-01-09T13:51:56;14.80;53.60
35299;DHT22;21415;48.054;16.646;2023-01-09T13:57:23;14.70;53.40
35299;DHT22;21415;48.054;16.646;2023-01-09T13:59:50;14.70;53.30
35299;DHT22;21415;48.054;16.646;2023-01-09T14:05:01;14.70;53.30
35299;DHT22;21415;48.054;16.646;2023-01-09T14:07:34;14.70;53.40
35299;DHT22;21415;48.054;16.646;2023-01-09T14:10:05;14.70;53.50
35299;DHT22;21415;48.054;16.646;2023-01-09T14:12:37;14.70;53.50
35299;DHT22;21415;48.054;16.646;2023-01-09T14:15:04;14.70;53.40
35299;DHT22;21415;48.054;16.646;2023-01-09T14:17:33;14.70;53.30
35299;DHT22;21415;48.054;16.646;2023-01-09T14:20:24;14.70;53.40
35299;DHT22;21415;48.054;16.646;2023-01-09T14:22:45;14.70;53.40
35299;DHT22;21415;48.054;16.646;2023-01-09T14:25:15;14.70;53.30
35299;DHT22;21415;48.054;16.646;2023-01-09T14:35:47;14.70;53.30
35299;DHT22;21415;48.054;16.646;2023-01-09T14:41:29;14.70;53.30
35299;DHT22;21415;48.054;16.646;2023-01-09T14:46:12;14.60;53.20
35299;DHT22;21415;48.054;16.646;2023-01-09T14:48:52;14.60;53.20
35299;DHT22;21415;48.054;16.646;2023-01-09T14:51:20;14.60;53.20
35299;DHT22;21415;48.054;16.646;2023-01-09T14:53:46;14.60;53.20
35299;DHT22;21415;48.054;16.646;2023-01-09T14:56:26;14.60;53.20
35299;DHT22;21415;48.054;16.646;2023-01-09T14:59:02;14.60;53.30
35299;DHT22;21415;48.054;16.646;2023-01-09T15:01:28;14.60;53.30
35299;DHT22;21415;48.054;16.646;2023-01-09T15:03:57;14.60;53.30
35299;DHT22;21415;48.054;16.646;2023-01-09T15:06:26;14.60;53.20
35299;DHT22;21415;48.054;16.646;2023-01-09T15:08:55;14.50;53.10
35299;DHT22;21415;48.054;16.646;2023-01-09T15:11:23;14.50;53.10
35299;DHT22;21415;48.054;16.646;2023-01-09T15:13:49;14.50;53.10
35299;DHT22;21415;48.054;16.646;2023-01-09T15:16:21;14.50;53.20
35299;DHT22;21415;48.054;16.646;2023-01-09T15:18:48;14.40;53.20
35299;DHT22;21415;48.054;16.646;2023-01-09T15:21:16;14.40;53.20
35299;DHT22;21415;48.054;16.646;2023-01-09T15:23:43;14.40;53.10
35299;DHT22;21415;48.054;16.646;2023-01-09T15:26:13;14.40;53.20
35299;DHT22;21415;48.054;16.646;2023-01-09T15:28:42;14.40;53.30
35299;DHT22;21415;48.054;16.646;2023-01-09T15:31:17;14.30;53.30
35299;DHT22;21415;48.054;16.646;2023-01-09T15:33:44;14.30;53.40
35299;DHT22;21415;48.054;16.646;2023-01-09T15:36:24;14.30;53.40
35299;DHT22;21415;48.054;16.646;2023-01-09T15:38:50;14.30;53.50
35299;DHT22;21415;48.054;16.646;2023-01-09T15:41:18;14.30;53.50
35299;DHT22;21415;48.054;16.646;2023-01-09T15:44:04;14.30;53.50
35299;DHT22;21415;48.054;16.646;2023-01-09T15:46:30;14.30;53.40
35299;DHT22;21415;48.054;16.646;2023-01-09T15:48:56;14.20;53.40
35299;DHT22;21415;48.054;16.646;2023-01-09T15:51:22;14.20;53.40
35299;DHT22;21415;48.054;16.646;2023-01-09T15:53:48;14.20;53.50
35299;DHT22;21415;48.054;16.646;2023-01-09T15:56:24;14.20;53.50
35299;DHT22;21415;48.054;16.646;2023-01-09T15:58:57;14.20;53.50
35299;DHT22;21415;48.054;16.646;2023-01-09T16:06:37;14.20;53.50
35299;DHT22;21415;48.054;16.646;2023-01-09T16:09:22;14.20;53.60
35299;DHT22;21415;48.054;16.646;2023-01-09T16:11:51;14.10;53.50
35299;DHT22;21415;48.054;16.646;2023-01-09T16:14:21;14.10;53.50
35299;DHT22;21415;48.054;16.646;2023-01-09T16:16:49;14.10;53.60
35299;DHT22;21415;48.054;16.646;2023-01-09T16:19:32;14.10;53.60
35299;DHT22;21415;48.054;16.646;2023-01-09T16:24:53;14.10;53.60
35299;DHT22;21415;48.054;16.646;2023-01-09T16:27:29;14.10;53.60
35299;DHT22;21415;48.054;16.646;2023-01-09T16:29:57;14.10;53.60
35299;DHT22;21415;48.054;16.646;2023-01-09T16:32:30;14.10;53.60
35299;DHT22;21415;48.054;16.646;2023-01-09T16:34:58;14.10;53.60
35299;DHT22;21415;48.054;16.646;2023-01-09T16:37:24;14.00;53.40
35299;DHT22;21415;48.054;16.646;2023-01-09T16:42:31;14.00;53.50
35299;DHT22;21415;48.054;16.646;2023-01-09T16:45:15;14.00;53.90
35299;DHT22;21415;48.054;16.646;2023-01-09T16:47:41;14.00;53.30
35299;DHT22;21415;48.054;16.646;2023-01-09T16:50:09;14.00;53.30
35299;DHT22;21415;48.054;16.646;2023-01-09T16:52:35;13.90;53.40
35299;DHT22;21415;48.054;16.646;2023-01-09T16:55:01;13.90;53.40
35299;DHT22;21415;48.054;16.646;2023-01-09T16:57:26;13.90;53.40
35299;DHT22;21415;48.054;16.646;2023-01-09T16:59:52;13.90;53.40
35299;DHT22;21415;48.054;16.646;2023-01-09T17:02:18;14.00;53.50
35299;DHT22;21415;48.054;16.646;2023-01-09T17:04:44;13.90;53.40
35299;DHT22;21415;48.054;16.646;2023-01-09T17:07:11;13.90;53.40
35299;DHT22;21415;48.054;16.646;2023-01-09T17:09:37;13.90;53.40
35299;DHT22;21415;48.054;16.646;2023-01-09T17:12:03;13.90;53.30
35299;DHT22;21415;48.054;16.646;2023-01-09T17:14:29;13.90;53.30
35299;DHT22;21415;48.054;16.646;2023-01-09T17:16:55;13.90;53.10
35299;DHT22;21415;48.054;16.646;2023-01-09T17:19:20;13.90;53.30
35299;DHT22;21415;48.054;16.646;2023-01-09T17:21:47;13.80;53.30
35299;DHT22;21415;48.054;16.646;2023-01-09T17:24:13;13.90;53.30
35299;DHT22;21415;48.054;16.646;2023-01-09T17:26:57;13.90;53.30
35299;DHT22;21415;48.054;16.646;2023-01-09T17:29:42;13.90;53.20
35299;DHT22;21415;48.054;16.646;2023-01-09T17:32:15;13.90;53.30
35299;DHT22;21415;48.054;16.646;2023-01-09T17:34:41;13.80;53.30
35299;DHT22;21415;48.054;16.646;2023-01-09T17:37:08;13.90;53.30
35299;DHT22;21415;48.054;16.646;2023-01-09T17:39:34;13.90;53.30
35299;DHT22;21415;48.054;16.646;2023-01-09T17:41:59;13.90;53.30